Time;durP1;ratioP1;P1;durP2;ratioP2;P2;SDS_P1;SDS_P2;PMS_P1;PMS_P2;Temp;Humidity;BMP_temperature;BMP_pressure;BME280_temperature;BME280_humidity;BME280_pressure;Samples;Min_cycle;Max_cycle;Signal;HPM_P1;HPM_P2
2021/07/06 00:01:04;;;;;;;;;;;22.40;66.80;;;;;;5044267;28;82172;-48
2021/07/06 00:03:30;;;;;;;;;;;22.40;66.80;;;;;;5042181;28;84006;-48
2021/07/06 00:05:56;;;;;;;;;;;22.40;66.80;;;;;;5043328;28;82613;-48
2021/07/06 00:08:21;;;;;;;;;;;22.40;66.90;;;;;;5044301;28;83861;-48
2021/07/06 00:10:47;;;;;;;;;;;22.30;66.90;;;;;;5041235;28;83306;-48
2021/07/06 00:13:12;;;;;;;;;;;22.30;66.80;;;;;;5042655;28;82090;-49
2021/07/06 00:15:38;;;;;;;;;;;22.30;66.80;;;;;;5042021;28;82527;-47
2021/07/06 00:18:03;;;;;;;;;;;22.30;66.90;;;;;;5039837;28;84020;-48
2021/07/06 00:20:30;;;;;;;;;;;22.30;66.90;;;;;;5040034;28;82100;-48
2021/07/06 00:22:57;;;;;;;;;;;22.30;66.90;;;;;;5043415;28;83057;-48
2021/07/06 00:25:23;;;;;;;;;;;22.30;66.90;;;;;;5042702;28;82136;-51
2021/07/06 00:27:49;;;;;;;;;;;22.30;66.90;;;;;;5042496;28;82676;-47
2021/07/06 00:30:15;;;;;;;;;;;22.20;66.80;;;;;;5040370;28;84283;-48
2021/07/06 00:32:40;;;;;;;;;;;22.20;66.90;;;;;;5043198;28;82097;-48
2021/07/06 00:35:07;;;;;;;;;;;22.20;66.90;;;;;;5040584;28;82168;-47
2021/07/06 00:37:32;;;;;;;;;;;22.20;67.00;;;;;;5040318;28;84536;-49
2021/07/06 00:39:58;;;;;;;;;;;22.20;66.90;;;;;;5043467;28;81436;-48
2021/07/06 00:42:24;;;;;;;;;;;22.20;66.80;;;;;;5043682;28;83688;-49
2021/07/06 00:44:50;;;;;;;;;;;22.10;66.90;;;;;;5046404;28;83421;-48
2021/07/06 00:47:15;;;;;;;;;;;22.10;66.90;;;;;;5040214;28;83069;-48
2021/07/06 00:49:41;;;;;;;;;;;22.10;67.00;;;;;;5042094;27;82604;-48
2021/07/06 00:52:07;;;;;;;;;;;22.10;67.00;;;;;;5043679;28;82249;-48
2021/07/06 00:54:32;;;;;;;;;;;22.10;66.90;;;;;;5045265;28;82216;-49
2021/07/06 00:57:01;;;;;;;;;;;22.10;67.00;;;;;;5045078;28;83187;-48
2021/07/06 00:59:27;;;;;;;;;;;22.10;66.90;;;;;;5046462;28;82150;-47
2021/07/06 01:01:52;;;;;;;;;;;22.00;67.00;;;;;;5043951;28;82413;-48
2021/07/06 01:04:18;;;;;;;;;;;22.10;67.00;;;;;;5049186;28;82098;-51
2021/07/06 01:06:44;;;;;;;;;;;22.00;67.00;;;;;;5045316;28;82284;-47
2021/07/06 01:09:10;;;;;;;;;;;22.00;67.00;;;;;;5046971;28;82406;-47
2021/07/06 01:11:35;;;;;;;;;;;22.00;67.00;;;;;;5043453;28;83796;-48
2021/07/06 01:14:01;;;;;;;;;;;22.00;67.10;;;;;;5043878;28;82193;-48
2021/07/06 01:16:26;;;;;;;;;;;22.00;67.10;;;;;;5045576;28;83092;-48
2021/07/06 01:18:52;;;;;;;;;;;21.90;67.00;;;;;;5044193;28;82430;-48
2021/07/06 01:21:17;;;;;;;;;;;21.90;67.00;;;;;;5045426;28;82097;-49
2021/07/06 01:23:43;;;;;;;;;;;21.90;67.10;;;;;;5044368;28;83185;-48
2021/07/06 01:26:09;;;;;;;;;;;21.90;67.10;;;;;;5047181;28;82109;-48
2021/07/06 01:28:36;;;;;;;;;;;21.90;67.10;;;;;;5045568;28;83824;-48
2021/07/06 01:31:01;;;;;;;;;;;21.90;67.00;;;;;;5043822;28;83442;-49
2021/07/06 01:33:28;;;;;;;;;;;21.90;67.10;;;;;;5041991;28;82544;-47
2021/07/06 01:36:00;;;;;;;;;;;21.80;67.00;;;;;;5043927;28;85539;-49
2021/07/06 01:38:27;;;;;;;;;;;21.80;67.00;;;;;;5043558;28;83052;-48
2021/07/06 01:40:53;;;;;;;;;;;21.80;67.10;;;;;;5043621;28;84274;-48
2021/07/06 01:43:19;;;;;;;;;;;21.80;67.10;;;;;;5045480;28;83207;-48
2021/07/06 01:45:44;;;;;;;;;;;21.80;67.10;;;;;;5042920;28;82103;-48
2021/07/06 01:48:10;;;;;;;;;;;21.80;67.10;;;;;;5044271;28;83742;-48
2021/07/06 01:50:41;;;;;;;;;;;21.70;67.00;;;;;;5042892;28;82796;-48
2021/07/06 01:53:08;;;;;;;;;;;21.80;67.10;;;;;;5045284;28;83561;-49
2021/07/06 01:55:35;;;;;;;;;;;21.70;67.10;;;;;;5044991;28;84235;-48
2021/07/06 01:58:02;;;;;;;;;;;21.70;67.00;;;;;;5044568;28;82197;-48
2021/07/06 02:00:29;;;;;;;;;;;21.70;67.00;;;;;;5042988;28;84435;-48
2021/07/06 02:02:56;;;;;;;;;;;21.70;67.10;;;;;;5041309;28;83270;-47
2021/07/06 02:05:21;;;;;;;;;;;21.70;67.10;;;;;;5041997;28;82141;-48
2021/07/06 02:07:47;;;;;;;;;;;21.70;67.10;;;;;;5041493;28;83685;-48
2021/07/06 02:10:16;;;;;;;;;;;21.60;67.00;;;;;;5044553;28;84337;-48
2021/07/06 02:12:42;;;;;;;;;;;21.70;67.10;;;;;;5043833;28;84080;-48
2021/07/06 02:15:09;;;;;;;;;;;21.60;67.10;;;;;;5042914;28;83044;-48
2021/07/06 02:17:35;;;;;;;;;;;21.60;67.00;;;;;;5041831;28;81388;-48
2021/07/06 02:20:01;;;;;;;;;;;21.60;67.10;;;;;;5045229;28;83111;-48
2021/07/06 02:22:26;;;;;;;;;;;21.60;67.10;;;;;;5044247;28;84390;-48
2021/07/06 02:24:52;;;;;;;;;;;21.60;67.10;;;;;;5043566;28;84454;-49
2021/07/06 02:27:18;;;;;;;;;;;21.50;67.00;;;;;;5041187;28;82951;-47
2021/07/06 02:29:43;;;;;;;;;;;21.50;67.00;;;;;;5040656;28;83033;-48
2021/07/06 02:32:09;;;;;;;;;;;21.50;67.10;;;;;;5044158;28;82931;-48
2021/07/06 02:34:34;;;;;;;;;;;21.50;67.10;;;;;;5041149;28;83179;-48
2021/07/06 02:37:00;;;;;;;;;;;21.50;67.00;;;;;;5040904;28;83840;-48
2021/07/06 02:39:26;;;;;;;;;;;21.50;67.10;;;;;;5044803;28;83741;-48
2021/07/06 02:41:51;;;;;;;;;;;21.40;67.70;;;;;;5046124;28;81971;-48
2021/07/06 02:44:17;;;;;;;;;;;21.40;67.00;;;;;;5045124;28;82151;-48
2021/07/06 02:46:42;;;;;;;;;;;21.50;67.10;;;;;;5043957;28;83920;-49
2021/07/06 02:49:08;;;;;;;;;;;21.50;67.10;;;;;;5042646;28;84145;-47
2021/07/06 02:51:35;;;;;;;;;;;21.40;67.00;;;;;;5042349;28;82137;-49
2021/07/06 02:54:00;;;;;;;;;;;21.40;67.00;;;;;;5043293;28;82955;-48
2021/07/06 02:56:26;;;;;;;;;;;21.40;66.90;;;;;;5045737;28;84176;-49
2021/07/06 02:58:52;;;;;;;;;;;21.30;67.00;;;;;;5044894;28;83597;-48
2021/07/06 03:01:17;;;;;;;;;;;21.30;67.00;;;;;;5045334;28;83078;-48
2021/07/06 03:03:43;;;;;;;;;;;21.30;67.00;;;;;;5045024;28;82111;-48
2021/07/06 03:06:08;;;;;;;;;;;21.30;67.00;;;;;;5045021;28;82095;-49
2021/07/06 03:08:34;;;;;;;;;;;21.30;67.00;;;;;;5044727;28;83001;-48
2021/07/06 03:11:00;;;;;;;;;;;21.30;67.00;;;;;;5042782;28;82144;-47
2021/07/06 03:13:26;;;;;;;;;;;21.30;67.00;;;;;;5042775;28;84190;-47
2021/07/06 03:15:51;;;;;;;;;;;21.30;67.00;;;;;;5041029;28;82087;-48
2021/07/06 03:18:17;;;;;;;;;;;21.20;67.00;;;;;;5040399;28;84107;-49
2021/07/06 03:20:43;;;;;;;;;;;21.20;66.90;;;;;;5040618;28;83011;-47
2021/07/06 03:23:08;;;;;;;;;;;21.20;67.10;;;;;;5040465;28;83790;-47
2021/07/06 03:25:34;;;;;;;;;;;21.20;66.90;;;;;;5041615;28;83394;-48
2021/07/06 03:28:01;;;;;;;;;;;21.20;67.00;;;;;;5042051;28;82617;-49
2021/07/06 03:30:28;;;;;;;;;;;21.20;67.10;;;;;;5043313;28;81383;-49
2021/07/06 03:32:54;;;;;;;;;;;21.10;67.00;;;;;;5041146;28;82134;-48
2021/07/06 03:35:20;;;;;;;;;;;21.10;67.10;;;;;;5042370;28;83702;-48
2021/07/06 03:37:46;;;;;;;;;;;21.10;67.00;;;;;;5041596;28;83292;-49
2021/07/06 03:40:12;;;;;;;;;;;21.10;67.00;;;;;;5044653;28;82712;-48
2021/07/06 03:42:38;;;;;;;;;;;21.10;67.10;;;;;;5044684;28;82097;-48
2021/07/06 03:45:04;;;;;;;;;;;21.10;67.00;;;;;;5043617;28;83917;-48
2021/07/06 03:47:30;;;;;;;;;;;21.10;67.10;;;;;;5041043;28;83206;-48
2021/07/06 03:49:55;;;;;;;;;;;21.10;67.10;;;;;;5040535;28;82121;-48
2021/07/06 03:52:21;;;;;;;;;;;21.10;67.00;;;;;;5039557;28;84438;-47
2021/07/06 03:54:46;;;;;;;;;;;21.00;67.00;;;;;;5041385;28;83744;-48
2021/07/06 03:57:12;;;;;;;;;;;21.10;67.10;;;;;;5045816;28;82801;-48
2021/07/06 03:59:37;;;;;;;;;;;21.10;67.10;;;;;;5039751;28;82728;-49
2021/07/06 04:02:03;;;;;;;;;;;21.00;67.00;;;;;;5038841;28;83049;-47
2021/07/06 04:04:29;;;;;;;;;;;21.00;67.10;;;;;;5039759;28;82968;-48
2021/07/06 04:06:54;;;;;;;;;;;21.00;67.20;;;;;;5039943;28;83305;-48
2021/07/06 04:09:20;;;;;;;;;;;21.00;67.20;;;;;;5043459;28;83356;-48
2021/07/06 04:11:45;;;;;;;;;;;21.00;67.10;;;;;;5044101;28;82751;-48
2021/07/06 04:14:11;;;;;;;;;;;21.00;67.20;;;;;;5043341;28;83732;-48
2021/07/06 04:16:40;;;;;;;;;;;21.00;67.20;;;;;;5043168;28;82135;-48
2021/07/06 04:19:06;;;;;;;;;;;21.00;67.20;;;;;;5044970;28;82410;-48
2021/07/06 04:21:35;;;;;;;;;;;20.90;67.10;;;;;;5042777;28;82733;-47
2021/07/06 04:24:01;;;;;;;;;;;20.90;67.20;;;;;;5040761;28;84108;-48
2021/07/06 04:26:27;;;;;;;;;;;20.90;67.20;;;;;;5039465;28;83220;-48
2021/07/06 04:28:52;;;;;;;;;;;20.90;67.10;;;;;;5039698;28;82103;-48
2021/07/06 04:31:18;;;;;;;;;;;20.90;67.20;;;;;;5039384;28;82552;-49
2021/07/06 04:33:43;;;;;;;;;;;20.90;67.20;;;;;;5040776;28;83357;-48
2021/07/06 04:36:09;;;;;;;;;;;20.90;67.10;;;;;;5042901;28;83661;-49
2021/07/06 04:38:34;;;;;;;;;;;20.90;67.30;;;;;;5040912;28;83675;-48
2021/07/06 04:41:00;;;;;;;;;;;20.90;67.30;;;;;;5045670;28;83271;-47
2021/07/06 04:43:25;;;;;;;;;;;20.90;67.20;;;;;;5044051;28;82075;-50
2021/07/06 04:45:51;;;;;;;;;;;20.80;67.20;;;;;;5043711;28;83301;-49
2021/07/06 04:48:16;;;;;;;;;;;20.80;67.30;;;;;;5043622;28;82133;-48
2021/07/06 04:50:42;;;;;;;;;;;20.80;67.30;;;;;;5042134;28;84051;-48
2021/07/06 04:53:08;;;;;;;;;;;20.80;67.30;;;;;;5043381;28;83025;-48
2021/07/06 04:55:35;;;;;;;;;;;20.80;67.30;;;;;;5042475;28;82111;-48
2021/07/06 04:58:02;;;;;;;;;;;20.80;67.30;;;;;;5039186;28;83818;-47
2021/07/06 05:00:27;;;;;;;;;;;20.80;67.30;;;;;;5043588;28;83854;-50
2021/07/06 05:02:53;;;;;;;;;;;20.80;67.30;;;;;;5045928;28;82560;-48
2021/07/06 05:05:19;;;;;;;;;;;20.80;67.20;;;;;;5043324;28;82970;-49
2021/07/06 05:07:45;;;;;;;;;;;20.80;67.30;;;;;;5042026;28;81418;-48
2021/07/06 05:10:11;;;;;;;;;;;20.80;67.30;;;;;;5042072;28;83151;-48
2021/07/06 05:12:37;;;;;;;;;;;20.80;67.40;;;;;;5042055;28;83381;-48
2021/07/06 05:15:04;;;;;;;;;;;20.80;67.40;;;;;;5042850;28;83088;-49
2021/07/06 05:17:29;;;;;;;;;;;20.80;67.40;;;;;;5042313;28;83800;-48
2021/07/06 05:19:55;;;;;;;;;;;20.80;67.50;;;;;;5041572;28;84915;-48
2021/07/06 05:22:22;;;;;;;;;;;20.80;67.50;;;;;;5045601;28;82087;-49
2021/07/06 05:24:48;;;;;;;;;;;20.80;67.60;;;;;;5040638;28;84850;-48
2021/07/06 05:27:14;;;;;;;;;;;20.80;67.60;;;;;;5039279;28;82128;-48
2021/07/06 05:29:39;;;;;;;;;;;20.80;67.60;;;;;;5039010;28;83669;-48
2021/07/06 05:32:05;;;;;;;;;;;20.80;67.70;;;;;;5042324;28;82462;-48
2021/07/06 05:34:31;;;;;;;;;;;20.80;67.70;;;;;;5042966;28;82109;-49
2021/07/06 05:36:56;;;;;;;;;;;20.80;67.80;;;;;;5044036;27;82122;-49
2021/07/06 05:39:22;;;;;;;;;;;20.80;67.80;;;;;;5045803;28;83092;-50
2021/07/06 05:41:47;;;;;;;;;;;20.80;67.80;;;;;;5046931;28;82091;-48
2021/07/06 05:44:13;;;;;;;;;;;20.80;67.80;;;;;;5048441;28;82575;-48
2021/07/06 05:46:39;;;;;;;;;;;20.80;67.90;;;;;;5044490;28;82117;-47
2021/07/06 05:49:05;;;;;;;;;;;20.70;67.90;;;;;;5043579;28;82185;-48
2021/07/06 05:51:30;;;;;;;;;;;20.80;67.90;;;;;;5043616;28;82704;-48
2021/07/06 05:53:56;;;;;;;;;;;20.80;67.90;;;;;;5043196;28;82132;-47
2021/07/06 05:56:21;;;;;;;;;;;20.80;67.90;;;;;;5043358;28;82399;-47
2021/07/06 05:58:47;;;;;;;;;;;20.80;67.90;;;;;;5041283;28;82990;-48
2021/07/06 06:01:13;;;;;;;;;;;20.80;68.10;;;;;;5042984;28;83509;-47
2021/07/06 06:03:39;;;;;;;;;;;20.80;68.10;;;;;;5044508;28;84158;-49
2021/07/06 06:06:04;;;;;;;;;;;20.80;68.10;;;;;;5049150;28;82903;-48
2021/07/06 06:08:30;;;;;;;;;;;20.80;68.10;;;;;;5044216;28;82990;-48
2021/07/06 06:10:55;;;;;;;;;;;20.80;68.10;;;;;;5041992;28;83686;-49
2021/07/06 06:13:21;;;;;;;;;;;20.80;68.10;;;;;;5046075;28;82085;-48
2021/07/06 06:15:47;;;;;;;;;;;20.80;68.30;;;;;;5045675;28;84352;-47
2021/07/06 06:18:12;;;;;;;;;;;20.80;68.30;;;;;;5044788;28;82582;-48
2021/07/06 06:20:38;;;;;;;;;;;20.80;68.40;;;;;;5044415;28;81487;-48
2021/07/06 06:23:04;;;;;;;;;;;20.80;68.30;;;;;;5043109;28;82100;-47
2021/07/06 06:25:30;;;;;;;;;;;20.80;68.30;;;;;;5041242;28;84001;-47
2021/07/06 06:27:56;;;;;;;;;;;20.80;68.40;;;;;;5043471;28;83006;-47
2021/07/06 06:30:21;;;;;;;;;;;20.80;68.40;;;;;;5041335;28;83159;-47
2021/07/06 06:32:47;;;;;;;;;;;20.80;68.30;;;;;;5043410;28;82769;-47
2021/07/06 06:35:13;;;;;;;;;;;20.80;68.40;;;;;;5042429;28;83680;-49
2021/07/06 06:37:38;;;;;;;;;;;20.80;68.30;;;;;;5045734;28;82134;-48
2021/07/06 06:40:06;;;;;;;;;;;20.80;68.30;;;;;;5044899;28;82253;-48
2021/07/06 06:42:31;;;;;;;;;;;20.80;68.30;;;;;;5074332;27;83396;-48
2021/07/06 06:44:57;;;;;;;;;;;20.80;68.30;;;;;;5041083;28;81834;-48
2021/07/06 06:47:23;;;;;;;;;;;20.80;68.40;;;;;;5043357;28;83588;-48
2021/07/06 06:49:48;;;;;;;;;;;20.80;68.30;;;;;;5048243;28;83750;-49
2021/07/06 06:52:14;;;;;;;;;;;20.90;68.40;;;;;;5044433;28;83053;-47
2021/07/06 06:54:40;;;;;;;;;;;20.80;68.30;;;;;;5043724;28;83693;-47
2021/07/06 06:57:05;;;;;;;;;;;20.90;69.00;;;;;;5042744;28;84659;-48
2021/07/06 06:59:31;;;;;;;;;;;20.90;68.40;;;;;;5042219;28;82105;-48
2021/07/06 07:04:40;;;;;;;;;;;20.90;68.30;;;;;;5043836;28;82059;-47
2021/07/06 07:07:06;;;;;;;;;;;20.90;68.50;;;;;;5043058;28;82189;-47
2021/07/06 07:09:31;;;;;;;;;;;20.90;68.40;;;;;;5045127;28;83006;-47
2021/07/06 07:11:57;;;;;;;;;;;20.90;68.50;;;;;;5041855;28;82162;-48
2021/07/06 07:14:22;;;;;;;;;;;20.90;68.70;;;;;;5040853;28;83830;-47
2021/07/06 07:16:48;;;;;;;;;;;20.90;68.50;;;;;;5039365;28;85683;-47
2021/07/06 07:19:14;;;;;;;;;;;20.90;68.40;;;;;;5043281;28;83736;-48
2021/07/06 07:21:39;;;;;;;;;;;20.90;68.30;;;;;;5045382;28;83031;-51
2021/07/06 07:24:05;;;;;;;;;;;20.90;68.40;;;;;;5043966;28;83306;-49
2021/07/06 07:26:30;;;;;;;;;;;20.90;68.40;;;;;;5044633;28;82080;-49
2021/07/06 07:28:57;;;;;;;;;;;21.00;68.60;;;;;;5044375;28;82185;-50
2021/07/06 07:31:22;;;;;;;;;;;20.90;68.50;;;;;;5046259;28;84806;-47
2021/07/06 07:33:48;;;;;;;;;;;21.00;68.50;;;;;;5044280;28;83944;-47
2021/07/06 07:36:14;;;;;;;;;;;21.00;68.40;;;;;;5043123;28;84303;-47
2021/07/06 07:38:39;;;;;;;;;;;21.00;68.30;;;;;;5042433;28;82127;-47
2021/07/06 07:41:05;;;;;;;;;;;21.00;68.30;;;;;;5041204;28;83036;-47
2021/07/06 07:43:30;;;;;;;;;;;21.00;68.40;;;;;;5040661;28;82497;-48
2021/07/06 07:45:56;;;;;;;;;;;21.00;68.30;;;;;;5040300;28;82077;-48
2021/07/06 07:48:21;;;;;;;;;;;21.00;68.30;;;;;;5040843;28;83812;-47
2021/07/06 07:50:47;;;;;;;;;;;21.00;68.40;;;;;;5039890;28;83400;-47
2021/07/06 07:53:13;;;;;;;;;;;21.00;68.20;;;;;;5047218;28;82162;-49
2021/07/06 07:55:39;;;;;;;;;;;21.00;68.20;;;;;;5043875;28;84301;-47
2021/07/06 07:58:04;;;;;;;;;;;21.00;68.20;;;;;;5043755;28;81344;-48
2021/07/06 08:00:30;;;;;;;;;;;21.10;68.20;;;;;;5043217;28;82134;-48
2021/07/06 08:02:59;;;;;;;;;;;21.10;68.30;;;;;;5043038;28;82463;-48
2021/07/06 08:05:24;;;;;;;;;;;21.10;68.10;;;;;;5040462;28;83138;-48
2021/07/06 08:07:50;;;;;;;;;;;21.10;68.20;;;;;;5044063;28;83272;-48
2021/07/06 08:10:15;;;;;;;;;;;21.10;68.00;;;;;;5044341;28;82095;-48
2021/07/06 08:12:41;;;;;;;;;;;21.00;68.40;;;;;;5043416;28;82235;-47
2021/07/06 08:15:07;;;;;;;;;;;21.10;68.70;;;;;;5045318;28;82394;-47
2021/07/06 08:17:33;;;;;;;;;;;21.10;68.50;;;;;;5041133;28;82127;-47
2021/07/06 08:20:01;;;;;;;;;;;21.10;67.90;;;;;;5040600;28;82209;-47
2021/07/06 08:22:27;;;;;;;;;;;21.10;67.90;;;;;;5043308;28;82065;-47
2021/07/06 08:24:53;;;;;;;;;;;21.10;68.00;;;;;;5041461;28;82142;-48
2021/07/06 08:27:19;;;;;;;;;;;21.20;68.00;;;;;;5039654;28;83996;-47
2021/07/06 08:29:44;;;;;;;;;;;21.10;67.90;;;;;;5038341;28;83891;-47
2021/07/06 08:32:10;;;;;;;;;;;21.20;68.10;;;;;;5042657;28;83433;-48
2021/07/06 08:34:35;;;;;;;;;;;21.20;68.50;;;;;;5040633;28;83130;-47
2021/07/06 08:37:01;;;;;;;;;;;21.10;68.50;;;;;;5045078;28;83133;-47
2021/07/06 08:39:27;;;;;;;;;;;21.20;68.80;;;;;;5044506;28;82145;-48
2021/07/06 08:41:53;;;;;;;;;;;21.20;68.50;;;;;;5040772;28;84009;-48
2021/07/06 08:44:20;;;;;;;;;;;21.20;68.50;;;;;;5041443;28;82164;-48
2021/07/06 08:46:46;;;;;;;;;;;21.20;68.90;;;;;;5041143;28;83720;-47
2021/07/06 08:49:12;;;;;;;;;;;21.20;69.00;;;;;;5040288;28;82873;-50
2021/07/06 08:51:40;;;;;;;;;;;21.20;68.90;;;;;;5042614;28;83603;-49
2021/07/06 08:54:06;;;;;;;;;;;21.30;68.80;;;;;;5040663;28;83010;-47
2021/07/06 08:56:31;;;;;;;;;;;21.30;68.80;;;;;;5041862;28;82102;-47
2021/07/06 08:58:57;;;;;;;;;;;21.30;68.80;;;;;;5044927;28;82109;-47
2021/07/06 09:01:29;;;;;;;;;;;21.30;68.40;;;;;;5041620;28;84089;-48
2021/07/06 09:03:58;;;;;;;;;;;21.40;68.20;;;;;;5039886;28;82143;-48
2021/07/06 09:06:24;;;;;;;;;;;21.30;68.00;;;;;;5040754;28;82130;-48
2021/07/06 09:08:53;;;;;;;;;;;21.40;68.10;;;;;;5038992;28;84609;-48
2021/07/06 09:11:19;;;;;;;;;;;21.40;68.20;;;;;;5042592;27;81392;-47
2021/07/06 09:13:45;;;;;;;;;;;21.40;68.60;;;;;;5045112;28;82061;-48
2021/07/06 09:16:37;;;;;;;;;;;21.40;69.10;;;;;;5043926;28;84974;-47
2021/07/06 09:19:15;;;;;;;;;;;21.40;68.90;;;;;;5043794;27;84751;-47
2021/07/06 09:21:40;;;;;;;;;;;21.40;68.80;;;;;;5045748;28;82672;-47
2021/07/06 09:24:06;;;;;;;;;;;21.40;68.80;;;;;;5045404;28;82108;-48
2021/07/06 09:26:34;;;;;;;;;;;21.40;68.90;;;;;;5044612;28;82106;-48
2021/07/06 09:29:00;;;;;;;;;;;21.40;68.70;;;;;;5046130;28;84068;-48
2021/07/06 09:31:27;;;;;;;;;;;21.50;68.80;;;;;;5045320;28;82228;-48
2021/07/06 09:33:58;;;;;;;;;;;21.50;69.00;;;;;;5044563;28;83842;-47
2021/07/06 09:36:24;;;;;;;;;;;21.60;68.20;;;;;;5044602;28;83745;-48
2021/07/06 09:39:08;;;;;;;;;;;21.60;68.50;;;;;;5043878;28;82115;-48
2021/07/06 09:41:34;;;;;;;;;;;21.60;68.40;;;;;;5048475;28;82725;-48
2021/07/06 09:44:13;;;;;;;;;;;21.60;68.00;;;;;;5044268;28;83089;-48
2021/07/06 09:46:45;;;;;;;;;;;21.70;68.20;;;;;;5046269;28;84907;-47
2021/07/06 09:49:13;;;;;;;;;;;21.70;68.30;;;;;;5044032;28;83086;-48
2021/07/06 09:51:39;;;;;;;;;;;21.70;68.40;;;;;;5046436;28;82089;-48
2021/07/06 09:54:04;;;;;;;;;;;21.70;68.50;;;;;;5045235;28;82750;-47
2021/07/06 09:56:30;;;;;;;;;;;21.70;68.50;;;;;;5044437;28;82641;-48
2021/07/06 09:58:55;;;;;;;;;;;21.70;68.40;;;;;;5043589;28;82141;-48
2021/07/06 10:01:22;;;;;;;;;;;21.70;68.50;;;;;;5043291;28;82916;-48
2021/07/06 10:03:49;;;;;;;;;;;21.70;68.40;;;;;;5045074;28;82999;-48
2021/07/06 10:06:16;;;;;;;;;;;21.80;68.50;;;;;;5046375;28;82090;-48
2021/07/06 10:08:42;;;;;;;;;;;21.70;68.90;;;;;;5042935;28;83110;-47
2021/07/06 10:11:08;;;;;;;;;;;21.70;68.30;;;;;;5041769;28;82116;-49
2021/07/06 10:13:35;;;;;;;;;;;21.70;68.30;;;;;;5043913;28;83855;-47
2021/07/06 10:16:00;;;;;;;;;;;21.70;68.40;;;;;;5044703;28;83259;-48
2021/07/06 10:18:26;;;;;;;;;;;21.70;68.30;;;;;;5045462;28;82097;-48
2021/07/06 10:20:54;;;;;;;;;;;21.80;68.50;;;;;;5043880;28;83060;-47
2021/07/06 10:23:20;;;;;;;;;;;21.90;68.10;;;;;;5041828;28;83636;-47
2021/07/06 10:25:53;;;;;;;;;;;21.90;68.10;;;;;;5048902;28;81356;-48
2021/07/06 10:28:19;;;;;;;;;;;21.90;68.00;;;;;;5042095;28;85136;-48
2021/07/06 10:30:46;;;;;;;;;;;21.90;68.20;;;;;;5041435;28;82135;-47
2021/07/06 10:33:23;;;;;;;;;;;21.90;68.10;;;;;;5045397;28;84058;-48
2021/07/06 10:35:49;;;;;;;;;;;21.90;68.00;;;;;;5042617;28;82779;-47
2021/07/06 10:38:27;;;;;;;;;;;22.00;67.70;;;;;;5041710;28;82113;-50
2021/07/06 10:40:53;;;;;;;;;;;22.00;67.40;;;;;;5044245;28;83780;-48
2021/07/06 10:43:28;;;;;;;;;;;22.00;67.40;;;;;;5042150;28;82752;-47
2021/07/06 10:45:54;;;;;;;;;;;22.00;67.80;;;;;;5042401;28;82121;-48
2021/07/06 10:48:38;;;;;;;;;;;22.00;67.70;;;;;;5045348;28;84590;-47
2021/07/06 10:51:04;;;;;;;;;;;22.10;67.50;;;;;;5044097;28;81400;-48
2021/07/06 10:53:29;;;;;;;;;;;22.10;67.50;;;;;;5043232;28;82118;-47
2021/07/06 10:56:01;;;;;;;;;;;22.10;67.30;;;;;;5042539;28;84482;-48
2021/07/06 10:58:45;;;;;;;;;;;22.20;67.30;;;;;;5040402;28;83078;-47
2021/07/06 11:01:11;;;;;;;;;;;22.20;67.10;;;;;;5043054;27;84598;-48
2021/07/06 11:03:39;;;;;;;;;;;22.30;67.00;;;;;;5042978;28;82607;-48
2021/07/06 11:06:25;;;;;;;;;;;22.20;66.80;;;;;;5044038;28;82953;-48
2021/07/06 11:08:50;;;;;;;;;;;22.30;66.80;;;;;;5045425;27;83078;-48
2021/07/06 11:11:34;;;;;;;;;;;22.30;67.00;;;;;;5047451;28;82734;-48
2021/07/06 11:14:18;;;;;;;;;;;22.30;66.60;;;;;;5044419;28;83840;-48
2021/07/06 11:16:54;;;;;;;;;;;22.30;66.80;;;;;;5041331;28;81967;-48
2021/07/06 11:19:36;;;;;;;;;;;22.40;66.70;;;;;;5041615;28;82102;-48
2021/07/06 11:22:10;;;;;;;;;;;22.40;66.40;;;;;;5040618;28;83660;-48
2021/07/06 11:24:40;;;;;;;;;;;22.40;66.50;;;;;;5042179;28;85323;-47
2021/07/06 11:27:06;;;;;;;;;;;22.40;66.20;;;;;;5044705;28;82870;-48
2021/07/06 11:29:38;;;;;;;;;;;22.40;66.50;;;;;;5041470;28;83601;-49
2021/07/06 11:32:09;;;;;;;;;;;22.40;66.60;;;;;;5047101;28;82688;-48
2021/07/06 11:34:35;;;;;;;;;;;22.40;66.50;;;;;;5043436;28;83617;-48
2021/07/06 11:37:05;;;;;;;;;;;22.50;66.90;;;;;;5042644;28;84378;-49
2021/07/06 11:39:32;;;;;;;;;;;22.50;66.60;;;;;;5040705;28;82098;-49
2021/07/06 11:41:58;;;;;;;;;;;22.50;66.70;;;;;;5043098;28;82807;-48
2021/07/06 11:44:23;;;;;;;;;;;22.50;66.60;;;;;;5040553;28;82833;-47
2021/07/06 11:46:49;;;;;;;;;;;22.60;66.60;;;;;;5043600;28;83821;-48
2021/07/06 11:49:20;;;;;;;;;;;22.60;66.60;;;;;;5043778;28;84066;-48
2021/07/06 11:51:45;;;;;;;;;;;22.60;66.70;;;;;;5040430;28;83100;-48
2021/07/06 11:54:12;;;;;;;;;;;22.60;66.70;;;;;;5043608;28;82153;-47
2021/07/06 11:56:38;;;;;;;;;;;22.60;66.70;;;;;;5044544;28;83364;-49
2021/07/06 11:59:11;;;;;;;;;;;22.60;66.70;;;;;;5044026;28;82966;-47
2021/07/06 12:01:37;;;;;;;;;;;22.60;66.90;;;;;;5042255;28;82525;-47
2021/07/06 12:04:02;;;;;;;;;;;22.60;66.70;;;;;;5041890;28;84192;-48
2021/07/06 12:06:30;;;;;;;;;;;22.70;66.90;;;;;;5043587;28;81432;-47
2021/07/06 12:09:00;;;;;;;;;;;22.70;66.40;;;;;;5039763;28;83559;-48
2021/07/06 12:11:27;;;;;;;;;;;22.80;66.30;;;;;;5041970;28;82558;-48
2021/07/06 12:13:54;;;;;;;;;;;22.80;66.30;;;;;;5041586;28;83101;-48
2021/07/06 12:16:23;;;;;;;;;;;22.80;66.50;;;;;;5043001;28;84033;-49
2021/07/06 12:18:59;;;;;;;;;;;22.80;66.60;;;;;;5043711;28;83393;-48
2021/07/06 12:21:24;;;;;;;;;;;22.80;66.70;;;;;;5042330;28;83442;-47
2021/07/06 12:23:50;;;;;;;;;;;22.90;66.30;;;;;;5039488;28;82413;-48
2021/07/06 12:26:15;;;;;;;;;;;22.90;66.00;;;;;;5040138;28;82090;-48
2021/07/06 12:28:42;;;;;;;;;;;22.90;65.70;;;;;;5039436;28;82153;-48
2021/07/06 12:31:20;;;;;;;;;;;22.90;65.90;;;;;;5040680;28;81655;-48
2021/07/06 12:33:57;;;;;;;;;;;22.90;65.70;;;;;;5043138;28;82164;-53
2021/07/06 12:36:29;;;;;;;;;;;22.90;66.10;;;;;;5041747;28;83704;-48
2021/07/06 12:39:15;;;;;;;;;;;23.40;63.00;;;;;;5042691;28;85392;-49
2021/07/06 12:41:41;;;;;;;;;;;23.60;62.00;;;;;;5039052;27;83751;-49
2021/07/06 12:44:09;;;;;;;;;;;23.50;62.90;;;;;;5041922;28;83414;-49
2021/07/06 12:46:34;;;;;;;;;;;23.40;63.00;;;;;;5045380;27;82111;-50
2021/07/06 12:49:00;;;;;;;;;;;23.30;63.20;;;;;;5047435;28;82530;-49
2021/07/06 12:51:26;;;;;;;;;;;23.20;63.90;;;;;;5046411;28;84624;-48
2021/07/06 12:54:09;;;;;;;;;;;23.20;64.10;;;;;;5043924;28;83317;-49
2021/07/06 12:56:35;;;;;;;;;;;23.20;64.40;;;;;;5044735;28;82667;-48
2021/07/06 12:59:19;;;;;;;;;;;23.20;64.30;;;;;;5043472;28;82451;-48
2021/07/06 13:01:44;;;;;;;;;;;23.20;64.10;;;;;;5047376;27;82097;-49
2021/07/06 13:04:10;;;;;;;;;;;23.20;64.40;;;;;;5043047;28;84514;-49
2021/07/06 13:06:36;;;;;;;;;;;23.30;64.60;;;;;;5045206;28;82118;-48
2021/07/06 13:09:01;;;;;;;;;;;23.20;64.20;;;;;;5045135;28;83865;-49
2021/07/06 13:11:27;;;;;;;;;;;23.20;64.10;;;;;;5045959;28;83290;-49
2021/07/06 13:13:53;;;;;;;;;;;23.30;64.20;;;;;;5046734;28;82134;-50
2021/07/06 13:16:31;;;;;;;;;;;23.30;64.20;;;;;;5046769;28;84326;-51
2021/07/06 13:18:57;;;;;;;;;;;23.30;64.50;;;;;;5045412;28;85189;-49
2021/07/06 13:21:26;;;;;;;;;;;23.30;64.40;;;;;;5045684;28;81391;-49
2021/07/06 13:23:52;;;;;;;;;;;23.30;64.40;;;;;;5048129;28;83103;-49
2021/07/06 13:26:18;;;;;;;;;;;23.40;64.30;;;;;;5046853;28;83486;-49
2021/07/06 13:28:46;;;;;;;;;;;23.40;64.50;;;;;;5046229;28;83918;-49
2021/07/06 13:31:12;;;;;;;;;;;23.30;64.30;;;;;;5043398;28;84581;-48
2021/07/06 13:33:39;;;;;;;;;;;23.30;64.20;;;;;;5045034;28;82064;-49
2021/07/06 13:36:04;;;;;;;;;;;23.30;64.40;;;;;;5044072;28;84029;-48
2021/07/06 13:38:30;;;;;;;;;;;23.40;64.60;;;;;;5043367;28;82146;-49
2021/07/06 13:40:56;;;;;;;;;;;23.40;64.60;;;;;;5043702;28;82069;-49
2021/07/06 13:43:22;;;;;;;;;;;23.30;64.60;;;;;;5047096;28;83028;-49
2021/07/06 13:45:48;;;;;;;;;;;23.40;64.80;;;;;;5045925;28;81414;-49
2021/07/06 13:48:14;;;;;;;;;;;23.40;64.70;;;;;;5044902;28;82956;-49
2021/07/06 13:50:39;;;;;;;;;;;23.40;64.50;;;;;;5044638;28;84229;-53
2021/07/06 13:53:05;;;;;;;;;;;23.40;64.80;;;;;;5045691;28;83062;-51
2021/07/06 13:57:56;;;;;;;;;;;23.40;64.60;;;;;;5045668;27;83890;-48
2021/07/06 14:00:22;;;;;;;;;;;23.40;64.60;;;;;;5046252;28;82082;-48
2021/07/06 14:02:48;;;;;;;;;;;23.50;64.00;;;;;;5044451;28;84020;-48
2021/07/06 14:05:14;;;;;;;;;;;23.60;64.30;;;;;;5047576;28;84445;-49
2021/07/06 14:07:40;;;;;;;;;;;23.60;64.40;;;;;;5045769;28;83596;-48
2021/07/06 14:10:09;;;;;;;;;;;23.60;64.10;;;;;;5045892;28;84277;-49
2021/07/06 14:12:35;;;;;;;;;;;23.60;63.80;;;;;;5043202;28;82095;-49
2021/07/06 14:15:00;;;;;;;;;;;23.70;63.90;;;;;;5043841;28;82080;-48
2021/07/06 14:17:26;;;;;;;;;;;23.80;63.20;;;;;;5044053;28;85337;-48
2021/07/06 14:19:52;;;;;;;;;;;23.80;63.10;;;;;;5044402;28;82068;-49